sensor_id;sensor_type;location;lat;lon;timestamp;pressure;altitude;pressure_sealevel;temperature;humidity
64521;BME280;50896;46.714;17.322;2023-04-16T00:01:59;100131.97;;;7.46;100.00
64521;BME280;50896;46.714;17.322;2023-04-16T00:04:27;100136.13;;;7.48;100.00
64521;BME280;50896;46.714;17.322;2023-04-16T00:06:54;100135.28;;;7.48;100.00
64521;BME280;50896;46.714;17.322;2023-04-16T00:09:21;100141.56;;;7.47;100.00
64521;BME280;50896;46.714;17.322;2023-04-16T00:11:47;100140.03;;;7.44;100.00
64521;BME280;50896;46.714;17.322;2023-04-16T00:14:14;100143.00;;;7.41;100.00
64521;BME280;50896;46.714;17.322;2023-04-16T00:16:41;100146.75;;;7.39;100.00
64521;BME280;50896;46.714;17.322;2023-04-16T00:19:08;100148.56;;;7.38;100.00
64521;BME280;50896;46.714;17.322;2023-04-16T00:21:35;100150.22;;;7.39;100.00
64521;BME280;50896;46.714;17.322;2023-04-16T00:24:02;100149.41;;;7.39;100.00
64521;BME280;50896;46.714;17.322;2023-04-16T00:26:29;100138.56;;;7.32;100.00
64521;BME280;50896;46.714;17.322;2023-04-16T00:28:57;100137.06;;;7.29;100.00
64521;BME280;50896;46.714;17.322;2023-04-16T00:31:28;100155.50;;;7.39;100.00
64521;BME280;50896;46.714;17.322;2023-04-16T00:33:55;100149.72;;;7.35;100.00
64521;BME280;50896;46.714;17.322;2023-04-16T00:36:23;100155.66;;;7.38;100.00
64521;BME280;50896;46.714;17.322;2023-04-16T00:38:50;100142.34;;;7.29;100.00
64521;BME280;50896;46.714;17.322;2023-04-16T00:41:17;100157.34;;;7.39;100.00
64521;BME280;50896;46.714;17.322;2023-04-16T00:43:44;100166.41;;;7.36;100.00
64521;BME280;50896;46.714;17.322;2023-04-16T00:46:11;100149.47;;;7.29;100.00
64521;BME280;50896;46.714;17.322;2023-04-16T00:48:39;100159.44;;;7.35;100.00
64521;BME280;50896;46.714;17.322;2023-04-16T00:51:07;100170.88;;;7.35;100.00
64521;BME280;50896;46.714;17.322;2023-04-16T00:53:34;100167.00;;;7.30;100.00
64521;BME280;50896;46.714;17.322;2023-04-16T00:56:05;100168.78;;;7.29;100.00
64521;BME280;50896;46.714;17.322;2023-04-16T00:58:33;100179.22;;;7.31;100.00
64521;BME280;50896;46.714;17.322;2023-04-16T01:01:01;100179.91;;;7.33;100.00
64521;BME280;50896;46.714;17.322;2023-04-16T01:03:37;100168.63;;;7.31;100.00
64521;BME280;50896;46.714;17.322;2023-04-16T01:06:06;100170.63;;;7.29;100.00
64521;BME280;50896;46.714;17.322;2023-04-16T01:08:33;100178.25;;;7.32;100.00
64521;BME280;50896;46.714;17.322;2023-04-16T01:10:59;100172.00;;;7.33;100.00
64521;BME280;50896;46.714;17.322;2023-04-16T01:13:27;100169.38;;;7.23;100.00
64521;BME280;50896;46.714;17.322;2023-04-16T01:15:53;100178.25;;;7.32;100.00
64521;BME280;50896;46.714;17.322;2023-04-16T01:18:21;100179.63;;;7.36;100.00
64521;BME280;50896;46.714;17.322;2023-04-16T01:20:49;100169.84;;;7.36;100.00
64521;BME280;50896;46.714;17.322;2023-04-16T01:23:17;100174.19;;;7.38;100.00
64521;BME280;50896;46.714;17.322;2023-04-16T01:25:45;100177.69;;;7.28;100.00
64521;BME280;50896;46.714;17.322;2023-04-16T01:28:12;100179.81;;;7.25;100.00
64521;BME280;50896;46.714;17.322;2023-04-16T01:30:39;100167.97;;;7.29;100.00
64521;BME280;50896;46.714;17.322;2023-04-16T01:33:32;100172.28;;;7.30;100.00
64521;BME280;50896;46.714;17.322;2023-04-16T01:35:59;100160.50;;;7.24;100.00
64521;BME280;50896;46.714;17.322;2023-04-16T01:38:26;100165.63;;;7.26;100.00
64521;BME280;50896;46.714;17.322;2023-04-16T01:40:56;100155.06;;;7.26;100.00
64521;BME280;50896;46.714;17.322;2023-04-16T01:43:23;100155.47;;;7.21;100.00
64521;BME280;50896;46.714;17.322;2023-04-16T01:45:52;100153.22;;;7.26;100.00
64521;BME280;50896;46.714;17.322;2023-04-16T01:48:19;100161.72;;;7.30;100.00
64521;BME280;50896;46.714;17.322;2023-04-16T01:50:46;100151.81;;;7.32;100.00
64521;BME280;50896;46.714;17.322;2023-04-16T01:53:12;100159.75;;;7.32;100.00
64521;BME280;50896;46.714;17.322;2023-04-16T01:55:39;100155.41;;;7.31;100.00
64521;BME280;50896;46.714;17.322;2023-04-16T01:58:06;100150.13;;;7.31;100.00
64521;BME280;50896;46.714;17.322;2023-04-16T02:00:36;100158.22;;;7.29;100.00
64521;BME280;50896;46.714;17.322;2023-04-16T02:03:03;100162.69;;;7.29;100.00
64521;BME280;50896;46.714;17.322;2023-04-16T02:05:30;100161.97;;;7.27;100.00
64521;BME280;50896;46.714;17.322;2023-04-16T02:07:57;100158.66;;;7.25;100.00
64521;BME280;50896;46.714;17.322;2023-04-16T02:10:24;100156.69;;;7.27;100.00
64521;BME280;50896;46.714;17.322;2023-04-16T02:12:51;100155.88;;;7.26;100.00
64521;BME280;50896;46.714;17.322;2023-04-16T02:15:17;100155.19;;;7.24;100.00
64521;BME280;50896;46.714;17.322;2023-04-16T02:17:44;100152.25;;;7.27;100.00
64521;BME280;50896;46.714;17.322;2023-04-16T02:20:12;100167.13;;;7.28;100.00
64521;BME280;50896;46.714;17.322;2023-04-16T02:22:50;100167.13;;;7.28;100.00
64521;BME280;50896;46.714;17.322;2023-04-16T02:25:20;100160.19;;;7.27;100.00
64521;BME280;50896;46.714;17.322;2023-04-16T02:27:48;100152.41;;;7.26;100.00
64521;BME280;50896;46.714;17.322;2023-04-16T02:30:23;100159.06;;;7.30;100.00
64521;BME280;50896;46.714;17.322;2023-04-16T02:32:51;100159.06;;;7.30;100.00
64521;BME280;50896;46.714;17.322;2023-04-16T02:35:19;100152.41;;;7.26;100.00
64521;BME280;50896;46.714;17.322;2023-04-16T02:37:46;100137.25;;;7.18;100.00
64521;BME280;50896;46.714;17.322;2023-04-16T02:40:13;100157.25;;;7.30;100.00
64521;BME280;50896;46.714;17.322;2023-04-16T02:42:40;100151.94;;;7.30;100.00
64521;BME280;50896;46.714;17.322;2023-04-16T02:45:08;100152.94;;;7.29;100.00
64521;BME280;50896;46.714;17.322;2023-04-16T02:47:35;100154.44;;;7.32;100.00
64521;BME280;50896;46.714;17.322;2023-04-16T02:50:02;100155.25;;;7.32;100.00
64521;BME280;50896;46.714;17.322;2023-04-16T02:52:29;100163.19;;;7.32;100.00
64521;BME280;50896;46.714;17.322;2023-04-16T02:54:58;100163.09;;;7.34;100.00
64521;BME280;50896;46.714;17.322;2023-04-16T02:57:25;100154.75;;;7.29;100.00
64521;BME280;50896;46.714;17.322;2023-04-16T02:59:52;100165.19;;;7.30;100.00
64521;BME280;50896;46.714;17.322;2023-04-16T03:02:19;100169.66;;;7.30;100.00
64521;BME280;50896;46.714;17.322;2023-04-16T03:04:46;100173.41;;;7.27;100.00
64521;BME280;50896;46.714;17.322;2023-04-16T03:07:13;100180.50;;;7.27;100.00
64521;BME280;50896;46.714;17.322;2023-04-16T03:09:39;100181.50;;;7.26;100.00
64521;BME280;50896;46.714;17.322;2023-04-16T03:12:06;100184.81;;;7.28;100.00
64521;BME280;50896;46.714;17.322;2023-04-16T03:14:33;100180.50;;;7.27;100.00
64521;BME280;50896;46.714;17.322;2023-04-16T03:17:00;100190.81;;;7.30;100.00
64521;BME280;50896;46.714;17.322;2023-04-16T03:19:27;100186.31;;;7.30;100.00
64521;BME280;50896;46.714;17.322;2023-04-16T03:21:54;100195.09;;;7.31;100.00
64521;BME280;50896;46.714;17.322;2023-04-16T03:24:21;100193.44;;;7.30;100.00
64521;BME280;50896;46.714;17.322;2023-04-16T03:26:48;100190.09;;;7.28;100.00
64521;BME280;50896;46.714;17.322;2023-04-16T03:29:15;100182.47;;;7.25;100.00
64521;BME280;50896;46.714;17.322;2023-04-16T03:31:42;100198.72;;;7.30;100.00
64521;BME280;50896;46.714;17.322;2023-04-16T03:34:09;100196.75;;;7.32;100.00
64521;BME280;50896;46.714;17.322;2023-04-16T03:36:38;100209.69;;;7.35;100.00
64521;BME280;50896;46.714;17.322;2023-04-16T03:39:05;100211.50;;;7.34;100.00
64521;BME280;50896;46.714;17.322;2023-04-16T03:41:32;100220.97;;;7.37;100.00
64521;BME280;50896;46.714;17.322;2023-04-16T03:43:59;100224.28;;;7.39;100.00
64521;BME280;50896;46.714;17.322;2023-04-16T03:46:26;100227.19;;;7.46;100.00
64521;BME280;50896;46.714;17.322;2023-04-16T03:48:53;100237.09;;;7.44;100.00
64521;BME280;50896;46.714;17.322;2023-04-16T03:51:20;100235.38;;;7.52;100.00
64521;BME280;50896;46.714;17.322;2023-04-16T03:53:46;100237.22;;;7.42;100.00
64521;BME280;50896;46.714;17.322;2023-04-16T03:56:13;100243.06;;;7.46;100.00
64521;BME280;50896;46.714;17.322;2023-04-16T03:58:40;100238.88;;;7.43;100.00
64521;BME280;50896;46.714;17.322;2023-04-16T04:01:07;100247.22;;;7.48;100.00
64521;BME280;50896;46.714;17.322;2023-04-16T04:03:35;100240.56;;;7.44;100.00
64521;BME280;50896;46.714;17.322;2023-04-16T04:06:09;100248.19;;;7.47;100.00
64521;BME280;50896;46.714;17.322;2023-04-16T04:08:36;100255.47;;;7.45;100.00
64521;BME280;50896;46.714;17.322;2023-04-16T04:11:03;100249.41;;;7.53;100.00
64521;BME280;50896;46.714;17.322;2023-04-16T04:13:32;100255.31;;;7.47;100.00
64521;BME280;50896;46.714;17.322;2023-04-16T04:15:59;100243.88;;;7.46;100.00
64521;BME280;50896;46.714;17.322;2023-04-16T04:18:27;100253.94;;;7.43;100.00
64521;BME280;50896;46.714;17.322;2023-04-16T04:20:54;100235.31;;;7.34;100.00
64521;BME280;50896;46.714;17.322;2023-04-16T04:23:25;100238.63;;;7.36;100.00
64521;BME280;50896;46.714;17.322;2023-04-16T04:25:52;100249.47;;;7.43;100.00
64521;BME280;50896;46.714;17.322;2023-04-16T04:28:19;100246.28;;;7.40;100.00
64521;BME280;50896;46.714;17.322;2023-04-16T04:30:46;100254.50;;;7.36;100.00
64521;BME280;50896;46.714;17.322;2023-04-16T04:33:13;100239.78;;;7.34;100.00
64521;BME280;50896;46.714;17.322;2023-04-16T04:35:40;100254.78;;;7.33;100.00
64521;BME280;50896;46.714;17.322;2023-04-16T04:38:07;100257.28;;;7.35;100.00
64521;BME280;50896;46.714;17.322;2023-04-16T04:40:34;100258.28;;;7.34;100.00
64521;BME280;50896;46.714;17.322;2023-04-16T04:43:02;100265.06;;;7.36;100.00
64521;BME280;50896;46.714;17.322;2023-04-16T04:45:29;100262.56;;;7.35;100.00
64521;BME280;50896;46.714;17.322;2023-04-16T04:47:57;100257.59;;;7.32;100.00
64521;BME280;50896;46.714;17.322;2023-04-16T04:50:24;100259.41;;;7.31;100.00
64521;BME280;50896;46.714;17.322;2023-04-16T04:52:51;100266.75;;;7.38;100.00
64521;BME280;50896;46.714;17.322;2023-04-16T04:55:18;100272.84;;;7.38;100.00
64521;BME280;50896;46.714;17.322;2023-04-16T04:57:45;100266.22;;;7.34;100.00
64521;BME280;50896;46.714;17.322;2023-04-16T05:00:12;100268.16;;;7.32;100.00
64521;BME280;50896;46.714;17.322;2023-04-16T05:03:00;100272.03;;;7.38;100.00
64521;BME280;50896;46.714;17.322;2023-04-16T05:05:27;100270.50;;;7.35;100.00
64521;BME280;50896;46.714;17.322;2023-04-16T05:07:54;100279.53;;;7.42;100.00
64521;BME280;50896;46.714;17.322;2023-04-16T05:10:21;100279.25;;;7.45;100.00
64521;BME280;50896;46.714;17.322;2023-04-16T05:12:48;100275.91;;;7.43;100.00
64521;BME280;50896;46.714;17.322;2023-04-16T05:15:15;100269.53;;;7.36;100.00
64521;BME280;50896;46.714;17.322;2023-04-16T05:17:42;100281.19;;;7.43;100.00
64521;BME280;50896;46.714;17.322;2023-04-16T05:20:09;100285.22;;;7.47;100.00
64521;BME280;50896;46.714;17.322;2023-04-16T05:22:36;100274.69;;;7.38;100.00
64521;BME280;50896;46.714;17.322;2023-04-16T05:25:03;100291.63;;;7.45;100.00
64521;BME280;50896;46.714;17.322;2023-04-16T05:27:30;100293.31;;;7.46;100.00
64521;BME280;50896;46.714;17.322;2023-04-16T05:29:57;100300.69;;;7.42;100.00
64521;BME280;50896;46.714;17.322;2023-04-16T05:32:25;100296.25;;;7.43;100.00
64521;BME280;50896;46.714;17.322;2023-04-16T05:34:52;100302.38;;;7.43;100.00
64521;BME280;50896;46.714;17.322;2023-04-16T05:37:19;100303.88;;;7.46;100.00
64521;BME280;50896;46.714;17.322;2023-04-16T05:39:46;100287.34;;;7.44;100.00
64521;BME280;50896;46.714;17.322;2023-04-16T05:42:13;100297.19;;;7.51;100.00
64521;BME280;50896;46.714;17.322;2023-04-16T05:44:39;100293.00;;;7.49;100.00
64521;BME280;50896;46.714;17.322;2023-04-16T05:47:06;100295.28;;;7.44;100.00
64521;BME280;50896;46.714;17.322;2023-04-16T05:49:35;100310.72;;;7.48;100.00
64521;BME280;50896;46.714;17.322;2023-04-16T05:52:04;100303.19;;;7.53;100.00
64521;BME280;50896;46.714;17.322;2023-04-16T05:54:33;100304.97;;;7.53;100.00
64521;BME280;50896;46.714;17.322;2023-04-16T05:57:00;100314.03;;;7.50;100.00
64521;BME280;50896;46.714;17.322;2023-04-16T05:59:27;100306.50;;;7.56;100.00
64521;BME280;50896;46.714;17.322;2023-04-16T06:01:54;100311.78;;;7.56;100.00
64521;BME280;50896;46.714;17.322;2023-04-16T06:04:21;100315.56;;;7.53;100.00
64521;BME280;50896;46.714;17.322;2023-04-16T06:06:48;100320.44;;;7.48;100.00
64521;BME280;50896;46.714;17.322;2023-04-16T06:09:15;100309.84;;;7.48;100.00
64521;BME280;50896;46.714;17.322;2023-04-16T06:11:43;100312.25;;;7.51;100.00
64521;BME280;50896;46.714;17.322;2023-04-16T06:14:10;100329.75;;;7.52;100.00
64521;BME280;50896;46.714;17.322;2023-04-16T06:16:37;100332.97;;;7.56;100.00
64521;BME280;50896;46.714;17.322;2023-04-16T06:19:04;100330.59;;;7.52;100.00
64521;BME280;50896;46.714;17.322;2023-04-16T06:21:31;100325.63;;;7.49;100.00
64521;BME280;50896;46.714;17.322;2023-04-16T06:23:58;100335.91;;;7.52;100.00
64521;BME280;50896;46.714;17.322;2023-04-16T06:26:24;100331.28;;;7.55;100.00
64521;BME280;50896;46.714;17.322;2023-04-16T06:28:52;100340.59;;;7.59;100.00
64521;BME280;50896;46.714;17.322;2023-04-16T06:31:18;100340.22;;;7.53;100.00
64521;BME280;50896;46.714;17.322;2023-04-16T06:33:46;100339.97;;;7.47;100.00
64521;BME280;50896;46.714;17.322;2023-04-16T06:36:13;100338.00;;;7.39;100.00
64521;BME280;50896;46.714;17.322;2023-04-16T06:38:40;100328.16;;;7.31;100.00
64521;BME280;50896;46.714;17.322;2023-04-16T06:41:06;100343.59;;;7.36;100.00
64521;BME280;50896;46.714;17.322;2023-04-16T06:43:33;100340.66;;;7.39;100.00
64521;BME280;50896;46.714;17.322;2023-04-16T06:46:00;100343.75;;;7.34;100.00
64521;BME280;50896;46.714;17.322;2023-04-16T06:48:27;100339.41;;;7.33;100.00
64521;BME280;50896;46.714;17.322;2023-04-16T06:50:54;100325.09;;;7.26;100.00
64521;BME280;50896;46.714;17.322;2023-04-16T06:53:22;100333.84;;;7.36;100.00
64521;BME280;50896;46.714;17.322;2023-04-16T06:55:50;100341.91;;;7.35;100.00
64521;BME280;50896;46.714;17.322;2023-04-16T06:58:17;100335.22;;;7.41;100.00
64521;BME280;50896;46.714;17.322;2023-04-16T07:00:44;100328.81;;;7.43;100.00
64521;BME280;50896;46.714;17.322;2023-04-16T07:03:11;100341.63;;;7.38;100.00
64521;BME280;50896;46.714;17.322;2023-04-16T07:05:38;100335.50;;;7.38;100.00
64521;BME280;50896;46.714;17.322;2023-04-16T07:08:05;100344.72;;;7.33;100.00
64521;BME280;50896;46.714;17.322;2023-04-16T07:10:32;100343.88;;;7.33;100.00
64521;BME280;50896;46.714;17.322;2023-04-16T07:12:59;100345.16;;;7.29;100.00
64521;BME280;50896;46.714;17.322;2023-04-16T07:15:27;100344.19;;;7.30;100.00
64521;BME280;50896;46.714;17.322;2023-04-16T07:17:54;100349.03;;;7.34;100.00
64521;BME280;50896;46.714;17.322;2023-04-16T07:20:21;100353.88;;;7.39;100.00
64521;BME280;50896;46.714;17.322;2023-04-16T07:22:48;100350.28;;;7.40;100.00
64521;BME280;50896;46.714;17.322;2023-04-16T07:25:14;100344.41;;;7.36;100.00
64521;BME280;50896;46.714;17.322;2023-04-16T07:27:41;100354.59;;;7.41;100.00
64521;BME280;50896;46.714;17.322;2023-04-16T07:30:08;100351.66;;;7.44;100.00
64521;BME280;50896;46.714;17.322;2023-04-16T07:32:35;100356.38;;;7.41;100.00
64521;BME280;50896;46.714;17.322;2023-04-16T07:35:02;100361.13;;;7.47;100.00
64521;BME280;50896;46.714;17.322;2023-04-16T07:37:29;100356.78;;;7.46;100.00
64521;BME280;50896;46.714;17.322;2023-04-16T07:39:56;100367.41;;;7.36;100.00
64521;BME280;50896;46.714;17.322;2023-04-16T07:42:23;100375.34;;;7.36;100.00
64521;BME280;50896;46.714;17.322;2023-04-16T07:44:49;100358.66;;;7.26;100.00
64521;BME280;50896;46.714;17.322;2023-04-16T07:47:16;100380.47;;;7.38;100.00
64521;BME280;50896;46.714;17.322;2023-04-16T07:49:43;100378.56;;;7.30;100.00
64521;BME280;50896;46.714;17.322;2023-04-16T07:52:10;100373.66;;;7.35;100.00
64521;BME280;50896;46.714;17.322;2023-04-16T07:54:37;100373.09;;;7.41;100.00
64521;BME280;50896;46.714;17.322;2023-04-16T07:57:04;100375.44;;;7.54;100.00
64521;BME280;50896;46.714;17.322;2023-04-16T07:59:31;100378.63;;;7.48;100.00
64521;BME280;50896;46.714;17.322;2023-04-16T08:01:57;100377.66;;;7.49;100.00
64521;BME280;50896;46.714;17.322;2023-04-16T08:04:24;100384.19;;;7.55;100.00
64521;BME280;50896;46.714;17.322;2023-04-16T08:06:52;100385.03;;;7.55;100.00
64521;BME280;50896;46.714;17.322;2023-04-16T08:09:20;100392.09;;;7.64;100.00
64521;BME280;50896;46.714;17.322;2023-04-16T08:11:48;100399.34;;;7.72;100.00
64521;BME280;50896;46.714;17.322;2023-04-16T08:14:15;100396.66;;;7.82;100.00
64521;BME280;50896;46.714;17.322;2023-04-16T08:16:42;100400.56;;;7.78;100.00
64521;BME280;50896;46.714;17.322;2023-04-16T08:19:09;100411.41;;;7.84;100.00
64521;BME280;50896;46.714;17.322;2023-04-16T08:21:36;100410.44;;;7.76;100.00
64521;BME280;50896;46.714;17.322;2023-04-16T08:24:03;100418.97;;;7.69;100.00
64521;BME280;50896;46.714;17.322;2023-04-16T08:26:30;100415.22;;;7.72;100.00
64521;BME280;50896;46.714;17.322;2023-04-16T08:29:00;100405.19;;;7.66;100.00
64521;BME280;50896;46.714;17.322;2023-04-16T08:31:27;100403.81;;;7.62;100.00
64521;BME280;50896;46.714;17.322;2023-04-16T08:33:54;100402.44;;;7.67;100.00
64521;BME280;50896;46.714;17.322;2023-04-16T08:36:20;100398.25;;;7.65;100.00
64521;BME280;50896;46.714;17.322;2023-04-16T08:38:47;100410.91;;;7.71;100.00
64521;BME280;50896;46.714;17.322;2023-04-16T08:41:14;100399.91;;;7.66;100.00
64521;BME280;50896;46.714;17.322;2023-04-16T08:43:44;100386.56;;;7.58;100.00
64521;BME280;50896;46.714;17.322;2023-04-16T08:46:11;100397.50;;;7.73;100.00
64521;BME280;50896;46.714;17.322;2023-04-16T08:48:41;100402.81;;;7.73;100.00
64521;BME280;50896;46.714;17.322;2023-04-16T08:51:08;100407.91;;;7.84;100.00
64521;BME280;50896;46.714;17.322;2023-04-16T08:53:45;100400.25;;;7.91;100.00
64521;BME280;50896;46.714;17.322;2023-04-16T08:56:14;100395.81;;;7.81;100.00
64521;BME280;50896;46.714;17.322;2023-04-16T08:58:46;100397.47;;;7.82;100.00
64521;BME280;50896;46.714;17.322;2023-04-16T09:01:15;100408.78;;;7.84;100.00
64521;BME280;50896;46.714;17.322;2023-04-16T09:03:46;100415.97;;;7.92;100.00
64521;BME280;50896;46.714;17.322;2023-04-16T09:06:14;100405.84;;;7.87;100.00
64521;BME280;50896;46.714;17.322;2023-04-16T09:08:45;100423.38;;;7.89;100.00
64521;BME280;50896;46.714;17.322;2023-04-16T09:11:18;100411.41;;;7.84;100.00
64521;BME280;50896;46.714;17.322;2023-04-16T09:13:46;100425.00;;;7.99;100.00
64521;BME280;50896;46.714;17.322;2023-04-16T09:16:13;100427.22;;;8.04;100.00
64521;BME280;50896;46.714;17.322;2023-04-16T09:18:40;100424.75;;;8.02;100.00
64521;BME280;50896;46.714;17.322;2023-04-16T09:21:11;100425.84;;;8.00;100.00
64521;BME280;50896;46.714;17.322;2023-04-16T09:23:39;100423.31;;;8.08;100.00
64521;BME280;50896;46.714;17.322;2023-04-16T09:26:06;100422.81;;;7.95;100.00
64521;BME280;50896;46.714;17.322;2023-04-16T09:28:46;100438.50;;;8.06;100.00
64521;BME280;50896;46.714;17.322;2023-04-16T09:31:16;100429.88;;;8.04;100.00
64521;BME280;50896;46.714;17.322;2023-04-16T09:33:59;100419.59;;;8.01;100.00
64521;BME280;50896;46.714;17.322;2023-04-16T09:36:27;100432.28;;;7.97;100.00
64521;BME280;50896;46.714;17.322;2023-04-16T09:38:54;100436.44;;;8.00;100.00
64521;BME280;50896;46.714;17.322;2023-04-16T09:41:33;100431.16;;;8.00;100.00
64521;BME280;50896;46.714;17.322;2023-04-16T09:44:05;100432.13;;;7.99;100.00
64521;BME280;50896;46.714;17.322;2023-04-16T09:46:39;100435.47;;;8.01;100.00
64521;BME280;50896;46.714;17.322;2023-04-16T09:51:48;100436.44;;;8.00;100.00
64521;BME280;50896;46.714;17.322;2023-04-16T09:54:18;100411.81;;;7.90;100.00
64521;BME280;50896;46.714;17.322;2023-04-16T09:56:46;100418.72;;;8.00;100.00
64521;BME280;50896;46.714;17.322;2023-04-16T09:59:20;100430.41;;;8.08;100.00
64521;BME280;50896;46.714;17.322;2023-04-16T10:01:48;100426.06;;;8.16;100.00
64521;BME280;50896;46.714;17.322;2023-04-16T10:04:15;100413.34;;;8.20;100.00
64521;BME280;50896;46.714;17.322;2023-04-16T10:06:42;100416.66;;;8.32;100.00
64521;BME280;50896;46.714;17.322;2023-04-16T10:09:09;100423.03;;;8.39;100.00
64521;BME280;50896;46.714;17.322;2023-04-16T10:11:37;100416.66;;;8.32;100.00
64521;BME280;50896;46.714;17.322;2023-04-16T10:14:04;100423.19;;;8.37;100.00
64521;BME280;50896;46.714;17.322;2023-04-16T10:16:31;100424.91;;;8.19;100.00
64521;BME280;50896;46.714;17.322;2023-04-16T10:18:59;100419.94;;;8.16;100.00
64521;BME280;50896;46.714;17.322;2023-04-16T10:21:26;100416.25;;;8.27;100.00
64521;BME280;50896;46.714;17.322;2023-04-16T10:24:00;100412.34;;;8.31;100.00
64521;BME280;50896;46.714;17.322;2023-04-16T10:26:28;100420.91;;;8.43;100.00
64521;BME280;50896;46.714;17.322;2023-04-16T10:28:57;100422.72;;;8.42;100.00
64521;BME280;50896;46.714;17.322;2023-04-16T10:31:24;100415.31;;;8.55;100.00
64521;BME280;50896;46.714;17.322;2023-04-16T10:33:52;100419.41;;;8.68;100.00
64521;BME280;50896;46.714;17.322;2023-04-16T10:36:23;100408.34;;;8.91;100.00
64521;BME280;50896;46.714;17.322;2023-04-16T10:38:56;100414.03;;;8.96;100.00
64521;BME280;50896;46.714;17.322;2023-04-16T10:41:24;100407.75;;;8.97;100.00
64521;BME280;50896;46.714;17.322;2023-04-16T10:43:52;100415.09;;;9.03;100.00
64521;BME280;50896;46.714;17.322;2023-04-16T10:49:02;100388.59;;;9.03;100.00
64521;BME280;50896;46.714;17.322;2023-04-16T10:51:37;100410.25;;;8.98;100.00
64521;BME280;50896;46.714;17.322;2023-04-16T10:56:35;100395.47;;;8.96;100.00
64521;BME280;50896;46.714;17.322;2023-04-16T10:59:07;100402.00;;;8.83;100.00
64521;BME280;50896;46.714;17.322;2023-04-16T11:01:44;100403.34;;;8.69;100.00
64521;BME280;50896;46.714;17.322;2023-04-16T11:10:04;100393.97;;;8.93;100.00
64521;BME280;50896;46.714;17.322;2023-04-16T11:15:08;100388.41;;;9.22;100.00
64521;BME280;50896;46.714;17.322;2023-04-16T11:17:41;100396.44;;;9.31;100.00
64521;BME280;50896;46.714;17.322;2023-04-16T11:22:51;100385.91;;;9.47;100.00
64521;BME280;50896;46.714;17.322;2023-04-16T11:25:24;100391.28;;;9.55;100.00
64521;BME280;50896;46.714;17.322;2023-04-16T11:27:52;100393.63;;;9.58;100.00
64521;BME280;50896;46.714;17.322;2023-04-16T11:30:30;100390.41;;;9.73;100.00
64521;BME280;50896;46.714;17.322;2023-04-16T11:33:17;100397.50;;;9.99;100.00
64521;BME280;50896;46.714;17.322;2023-04-16T11:35:55;100391.19;;;10.00;100.00
64521;BME280;50896;46.714;17.322;2023-04-16T11:38:34;100395.72;;;10.07;100.00
64521;BME280;50896;46.714;17.322;2023-04-16T11:41:02;100393.19;;;10.06;100.00
64521;BME280;50896;46.714;17.322;2023-04-16T11:43:29;100391.16;;;9.91;100.00
64521;BME280;50896;46.714;17.322;2023-04-16T11:46:01;100391.00;;;9.93;100.00
64521;BME280;50896;46.714;17.322;2023-04-16T11:48:49;100389.53;;;9.99;100.00
64521;BME280;50896;46.714;17.322;2023-04-16T11:51:17;100380.38;;;9.93;100.00
64521;BME280;50896;46.714;17.322;2023-04-16T11:53:53;100388.81;;;9.88;100.00
64521;BME280;50896;46.714;17.322;2023-04-16T11:56:26;100394.22;;;10.05;100.00
64521;BME280;50896;46.714;17.322;2023-04-16T11:59:11;100374.50;;;10.24;100.00
64521;BME280;50896;46.714;17.322;2023-04-16T12:01:40;100354.03;;;10.08;100.00
64521;BME280;50896;46.714;17.322;2023-04-16T12:04:07;100379.22;;;9.96;100.00
64521;BME280;50896;46.714;17.322;2023-04-16T12:06:35;100376.91;;;9.92;100.00
64521;BME280;50896;46.714;17.322;2023-04-16T12:09:21;100374.47;;;10.07;100.00
64521;BME280;50896;46.714;17.322;2023-04-16T12:11:48;100372.69;;;10.16;100.00
64521;BME280;50896;46.714;17.322;2023-04-16T12:14:15;100374.28;;;10.01;100.00
64521;BME280;50896;46.714;17.322;2023-04-16T12:16:42;100364.63;;;10.00;100.00
64521;BME280;50896;46.714;17.322;2023-04-16T12:19:10;100376.91;;;9.92;100.00
64521;BME280;50896;46.714;17.322;2023-04-16T12:21:43;100368.25;;;9.90;100.00
64521;BME280;50896;46.714;17.322;2023-04-16T12:24:12;100368.47;;;10.05;100.00
64521;BME280;50896;46.714;17.322;2023-04-16T12:26:44;100370.69;;;10.18;100.00
64521;BME280;50896;46.714;17.322;2023-04-16T12:29:19;100349.13;;;10.21;100.00
64521;BME280;50896;46.714;17.322;2023-04-16T12:31:48;100356.19;;;10.47;100.00
64521;BME280;50896;46.714;17.322;2023-04-16T12:34:15;100367.16;;;10.52;100.00
64521;BME280;50896;46.714;17.322;2023-04-16T12:36:44;100364.97;;;10.48;100.00
64521;BME280;50896;46.714;17.322;2023-04-16T12:39:12;100358.66;;;10.40;100.00
64521;BME280;50896;46.714;17.322;2023-04-16T12:41:40;100366.97;;;10.46;100.00
64521;BME280;50896;46.714;17.322;2023-04-16T12:44:11;100357.47;;;10.35;100.00
64521;BME280;50896;46.714;17.322;2023-04-16T12:46:42;100373.03;;;10.30;100.00
64521;BME280;50896;46.714;17.322;2023-04-16T12:49:10;100363.38;;;10.20;100.00
64521;BME280;50896;46.714;17.322;2023-04-16T12:51:37;100370.22;;;10.23;100.00
64521;BME280;50896;46.714;17.322;2023-04-16T12:54:05;100365.06;;;10.30;100.00
64521;BME280;50896;46.714;17.322;2023-04-16T12:56:35;100380.00;;;10.22;100.00
64521;BME280;50896;46.714;17.322;2023-04-16T12:59:02;100375.84;;;10.28;100.00
64521;BME280;50896;46.714;17.322;2023-04-16T13:01:29;100375.69;;;10.21;100.00
64521;BME280;50896;46.714;17.322;2023-04-16T13:03:56;100373.84;;;10.22;100.00